Time;durP1;ratioP1;P1;durP2;ratioP2;P2;SDS_P1;SDS_P2;PMS_P1;PMS_P2;Temp;Humidity;BMP_temperature;BMP_pressure;BME280_temperature;BME280_humidity;BME280_pressure;Samples;Min_cycle;Max_cycle;Signal;HPM_P1;HPM_P2
2024/01/02 00:01:26;;;;;;;14.80;2.83;;;;;;;;;;5027328;28;20046;-65
2024/01/02 00:03:52;;;;;;;16.83;3.33;;;;;;;;;;5028951;28;20443;-65
2024/01/02 00:06:18;;;;;;;15.90;3.90;;;;;;;;;;5027898;28;20049;-65
2024/01/02 00:08:44;;;;;;;14.07;3.23;;;;;;;;;;5028199;28;20045;-66
2024/01/02 00:11:10;;;;;;;16.60;3.30;;;;;;;;;;5028304;28;20053;-65
2024/01/02 00:13:36;;;;;;;18.57;3.90;;;;;;;;;;5026995;28;20045;-65
2024/01/02 00:16:03;;;;;;;28.97;5.17;;;;;;;;;;5028113;28;20041;-65
2024/01/02 00:18:29;;;;;;;16.53;3.90;;;;;;;;;;5027905;28;20060;-65
2024/01/02 00:20:56;;;;;;;16.33;3.53;;;;;;;;;;5027654;28;20038;-65
2024/01/02 00:23:22;;;;;;;18.87;3.70;;;;;;;;;;5028230;28;20068;-65
2024/01/02 00:25:48;;;;;;;26.60;4.43;;;;;;;;;;5026477;28;20634;-65
2024/01/02 00:28:14;;;;;;;18.87;4.57;;;;;;;;;;5028191;28;20412;-65
2024/01/02 00:30:40;;;;;;;23.60;4.13;;;;;;;;;;5027628;28;20037;-65
2024/01/02 00:33:07;;;;;;;15.97;3.30;;;;;;;;;;5027963;28;20041;-65
2024/01/02 00:35:34;;;;;;;20.13;3.90;;;;;;;;;;5027707;28;20352;-65
2024/01/02 00:38:00;;;;;;;15.07;3.80;;;;;;;;;;5027072;28;20041;-65
2024/01/02 00:40:26;;;;;;;21.93;3.57;;;;;;;;;;5026775;28;20037;-65
2024/01/02 00:42:52;;;;;;;19.87;4.63;;;;;;;;;;5028067;28;20038;-65
2024/01/02 00:45:18;;;;;;;17.13;3.67;;;;;;;;;;5027668;28;20446;-65
2024/01/02 00:47:45;;;;;;;12.53;3.33;;;;;;;;;;5027533;28;20484;-65
2024/01/02 00:50:11;;;;;;;17.47;4.07;;;;;;;;;;5027318;28;20050;-65
2024/01/02 00:52:37;;;;;;;21.73;4.60;;;;;;;;;;5027238;28;20049;-65
2024/01/02 00:55:04;;;;;;;23.17;4.23;;;;;;;;;;5031652;28;20038;-65
2024/01/02 00:57:31;;;;;;;19.27;4.30;;;;;;;;;;5031928;28;20463;-65
2024/01/02 00:59:58;;;;;;;20.30;3.90;;;;;;;;;;5031270;28;20085;-65
2024/01/02 01:02:24;;;;;;;18.67;4.97;;;;;;;;;;5030032;28;20053;-65
2024/01/02 01:04:50;;;;;;;32.63;5.30;;;;;;;;;;5031133;28;20146;-65
2024/01/02 01:07:16;;;;;;;25.90;7.40;;;;;;;;;;5031680;28;20098;-65
2024/01/02 01:09:42;;;;;;;25.03;5.57;;;;;;;;;;5031481;28;20432;-65
2024/01/02 01:12:08;;;;;;;21.57;5.47;;;;;;;;;;5031632;28;20046;-65
2024/01/02 01:14:35;;;;;;;23.57;5.37;;;;;;;;;;5031747;28;20385;-65
2024/01/02 01:17:01;;;;;;;18.40;5.30;;;;;;;;;;5030504;28;20415;-65
2024/01/02 01:19:27;;;;;;;25.77;5.50;;;;;;;;;;5030725;28;20132;-65
2024/01/02 01:21:53;;;;;;;27.23;5.77;;;;;;;;;;5031439;28;20038;-65
2024/01/02 01:24:19;;;;;;;18.53;5.80;;;;;;;;;;5032008;28;20042;-65
2024/01/02 01:26:45;;;;;;;26.63;5.60;;;;;;;;;;5023716;28;20096;-65
2024/01/02 01:29:12;;;;;;;20.03;6.70;;;;;;;;;;5030952;28;20507;-65
2024/01/02 01:31:38;;;;;;;32.13;6.33;;;;;;;;;;5030381;28;20416;-65
2024/01/02 01:34:04;;;;;;;24.27;6.20;;;;;;;;;;5031308;28;20033;-65
2024/01/02 01:36:30;;;;;;;22.13;6.03;;;;;;;;;;5030893;28;20052;-65
2024/01/02 01:38:56;;;;;;;26.73;6.37;;;;;;;;;;5031232;28;20049;-65
2024/01/02 01:41:22;;;;;;;27.53;7.03;;;;;;;;;;5031222;28;20187;-65
2024/01/02 01:43:48;;;;;;;28.70;8.13;;;;;;;;;;5030201;28;20419;-64
2024/01/02 01:46:15;;;;;;;21.53;6.87;;;;;;;;;;5029969;28;20063;-65
2024/01/02 01:48:41;;;;;;;21.97;6.57;;;;;;;;;;5030132;28;20662;-65
2024/01/02 01:51:08;;;;;;;28.73;8.37;;;;;;;;;;5030651;28;20052;-65
2024/01/02 01:53:35;;;;;;;26.80;7.27;;;;;;;;;;5031064;28;20536;-66
2024/01/02 01:56:01;;;;;;;23.97;7.93;;;;;;;;;;5030703;28;20079;-66
2024/01/02 01:58:27;;;;;;;28.53;9.37;;;;;;;;;;5030387;28;20037;-64
2024/01/02 02:00:53;;;;;;;20.50;8.37;;;;;;;;;;5030226;28;20048;-65
2024/01/02 02:03:20;;;;;;;30.67;9.83;;;;;;;;;;5029948;28;20527;-65
2024/01/02 02:05:46;;;;;;;25.87;8.90;;;;;;;;;;5030050;28;20042;-65
2024/01/02 02:08:12;;;;;;;22.63;11.30;;;;;;;;;;5030500;28;20132;-65
2024/01/02 02:10:38;;;;;;;26.40;10.10;;;;;;;;;;5030171;28;20133;-65
2024/01/02 02:13:04;;;;;;;40.33;11.97;;;;;;;;;;5028895;28;20416;-65
2024/01/02 02:15:30;;;;;;;32.67;12.43;;;;;;;;;;5030130;28;20045;-66
2024/01/02 02:17:57;;;;;;;36.67;12.33;;;;;;;;;;5030622;28;20052;-65
2024/01/02 02:20:23;;;;;;;25.43;10.33;;;;;;;;;;5029423;28;20041;-66
2024/01/02 02:22:49;;;;;;;31.80;11.77;;;;;;;;;;5029960;28;20044;-66
2024/01/02 02:25:16;;;;;;;35.47;12.53;;;;;;;;;;5029876;28;20673;-65
2024/01/02 02:27:42;;;;;;;30.87;10.13;;;;;;;;;;5024895;28;20060;-66
2024/01/02 02:30:09;;;;;;;32.87;11.83;;;;;;;;;;5030441;28;20536;-65
2024/01/02 02:32:35;;;;;;;29.67;12.97;;;;;;;;;;5030272;28;20049;-65
2024/01/02 02:35:01;;;;;;;32.33;13.23;;;;;;;;;;5030368;28;20041;-65
2024/01/02 02:37:27;;;;;;;28.50;13.97;;;;;;;;;;5029559;28;20248;-65
2024/01/02 02:39:53;;;;;;;46.03;15.17;;;;;;;;;;5030482;28;20575;-65
2024/01/02 02:42:19;;;;;;;29.97;12.67;;;;;;;;;;5028940;28;20124;-65
2024/01/02 02:44:45;;;;;;;25.13;11.87;;;;;;;;;;5028402;28;20156;-65
2024/01/02 02:47:11;;;;;;;26.03;11.47;;;;;;;;;;5029425;28;20073;-65
2024/01/02 02:49:37;;;;;;;26.23;12.33;;;;;;;;;;5030121;28;20049;-65
2024/01/02 02:52:04;;;;;;;25.90;12.50;;;;;;;;;;5029535;28;20052;-65
2024/01/02 02:54:30;;;;;;;22.43;8.60;;;;;;;;;;5029773;28;20498;-65
2024/01/02 02:56:56;;;;;;;22.10;10.50;;;;;;;;;;5029189;28;20037;-65
2024/01/02 02:59:22;;;;;;;19.43;8.30;;;;;;;;;;5029446;28;20057;-65
2024/01/02 03:01:48;;;;;;;23.63;9.17;;;;;;;;;;5044352;28;20124;-65
2024/01/02 03:04:14;;;;;;;25.63;8.10;;;;;;;;;;5029054;28;20114;-65
2024/01/02 03:06:40;;;;;;;23.23;9.90;;;;;;;;;;5028218;28;20137;-65
2024/01/02 03:09:06;;;;;;;22.40;8.43;;;;;;;;;;5029763;28;20046;-65
2024/01/02 03:11:32;;;;;;;19.87;7.87;;;;;;;;;;5029312;28;20129;-65
2024/01/02 03:13:58;;;;;;;17.97;7.37;;;;;;;;;;5029012;28;20049;-65
2024/01/02 03:16:25;;;;;;;21.33;7.73;;;;;;;;;;5028743;28;20041;-65
2024/01/02 03:18:51;;;;;;;18.27;6.67;;;;;;;;;;5027456;28;20042;-65
2024/01/02 03:21:17;;;;;;;16.57;7.40;;;;;;;;;;5027898;28;20136;-65
2024/01/02 03:23:43;;;;;;;22.53;7.57;;;;;;;;;;5029120;28;20187;-65
2024/01/02 03:26:10;;;;;;;18.67;7.37;;;;;;;;;;5020600;28;20087;-65
2024/01/02 03:28:36;;;;;;;17.73;7.67;;;;;;;;;;5029150;28;20080;-65
2024/01/02 03:31:04;;;;;;;21.70;8.70;;;;;;;;;;5028823;28;20138;-65
2024/01/02 03:33:30;;;;;;;19.13;6.50;;;;;;;;;;5028878;28;20573;-65
2024/01/02 03:35:56;;;;;;;15.97;7.13;;;;;;;;;;5028366;28;20076;-65
2024/01/02 03:38:22;;;;;;;17.53;6.70;;;;;;;;;;5028495;28;20412;-65
2024/01/02 03:40:50;;;;;;;11.97;6.30;;;;;;;;;;5028015;28;20191;-65
2024/01/02 03:43:16;;;;;;;15.53;6.33;;;;;;;;;;5028308;28;20496;-66
2024/01/02 03:45:42;;;;;;;16.13;6.37;;;;;;;;;;5028292;28;20041;-65
2024/01/02 03:48:08;;;;;;;14.90;6.10;;;;;;;;;;5026458;28;20488;-66
2024/01/02 03:50:34;;;;;;;13.83;6.40;;;;;;;;;;5028265;28;20585;-65
2024/01/02 03:53:00;;;;;;;14.53;5.33;;;;;;;;;;5028241;28;20069;-66
2024/01/02 03:55:26;;;;;;;13.77;5.53;;;;;;;;;;5027761;28;20135;-65
2024/01/02 03:57:52;;;;;;;23.50;6.20;;;;;;;;;;5028009;28;20574;-66
2024/01/02 04:00:18;;;;;;;11.87;6.40;;;;;;;;;;5028601;28;20045;-66
2024/01/02 04:02:44;;;;;;;12.00;5.87;;;;;;;;;;5028237;28;20480;-65
2024/01/02 04:05:10;;;;;;;16.37;6.67;;;;;;;;;;5028193;28;20046;-65
2024/01/02 04:07:36;;;;;;;22.27;7.73;;;;;;;;;;5028321;28;20412;-66
2024/01/02 04:10:03;;;;;;;18.50;7.13;;;;;;;;;;5027874;28;20049;-65
2024/01/02 04:12:29;;;;;;;18.90;7.60;;;;;;;;;;5027416;28;20082;-66
2024/01/02 04:14:55;;;;;;;10.03;5.13;;;;;;;;;;5027984;28;20419;-65
2024/01/02 04:17:21;;;;;;;11.60;6.30;;;;;;;;;;5028119;28;20474;-65
2024/01/02 04:19:47;;;;;;;12.50;5.77;;;;;;;;;;5028333;28;20049;-66
2024/01/02 04:22:14;;;;;;;11.57;5.97;;;;;;;;;;5027529;28;20268;-66
2024/01/02 04:24:40;;;;;;;11.37;5.50;;;;;;;;;;5028145;28;20164;-66
2024/01/02 04:27:08;;;;;;;12.43;4.80;;;;;;;;;;5027766;28;20106;-66
2024/01/02 04:29:34;;;;;;;9.50;5.57;;;;;;;;;;5027681;28;20680;-66
2024/01/02 04:32:00;;;;;;;14.17;5.70;;;;;;;;;;5027403;28;20132;-66
2024/01/02 04:34:26;;;;;;;14.47;5.17;;;;;;;;;;5026500;28;20107;-65
2024/01/02 04:36:52;;;;;;;18.60;5.40;;;;;;;;;;5010584;28;20078;-65
2024/01/02 04:39:18;;;;;;;20.03;5.67;;;;;;;;;;5027879;28;20128;-66
2024/01/02 04:41:43;;;;;;;14.63;6.93;;;;;;;;;;5027378;28;20049;-66
2024/01/02 04:44:10;;;;;;;12.57;5.90;;;;;;;;;;5027323;28;20053;-66
2024/01/02 04:46:36;;;;;;;11.63;6.27;;;;;;;;;;5027279;28;20041;-65
2024/01/02 04:49:02;;;;;;;12.33;6.13;;;;;;;;;;5027622;28;20132;-65
2024/01/02 04:51:28;;;;;;;10.60;5.60;;;;;;;;;;5027256;28;20587;-65
2024/01/02 04:53:54;;;;;;;9.07;5.10;;;;;;;;;;5027524;28;20049;-66
2024/01/02 04:56:20;;;;;;;12.10;6.10;;;;;;;;;;5027486;28;20507;-66
2024/01/02 04:58:46;;;;;;;11.87;4.87;;;;;;;;;;5028164;28;20518;-65
2024/01/02 05:01:12;;;;;;;10.30;5.63;;;;;;;;;;5027679;28;20046;-65
2024/01/02 05:03:38;;;;;;;8.23;5.23;;;;;;;;;;5027712;28;20817;-65
2024/01/02 05:06:04;;;;;;;16.03;6.80;;;;;;;;;;5027353;28;20136;-65
2024/01/02 05:08:30;;;;;;;12.97;5.77;;;;;;;;;;5027270;28;20045;-65
2024/01/02 05:10:56;;;;;;;11.40;5.90;;;;;;;;;;5027753;28;20088;-65
2024/01/02 05:13:24;;;;;;;11.07;5.83;;;;;;;;;;5026936;28;20077;-65
2024/01/02 05:15:50;;;;;;;8.43;4.03;;;;;;;;;;5027817;28;20037;-65
2024/01/02 05:18:16;;;;;;;9.90;6.07;;;;;;;;;;5027292;28;20507;-66
2024/01/02 05:20:42;;;;;;;7.67;5.40;;;;;;;;;;5027080;28;20046;-66
2024/01/02 05:23:09;;;;;;;10.03;5.73;;;;;;;;;;5027494;28;20054;-66
2024/01/02 05:25:35;;;;;;;10.53;6.57;;;;;;;;;;5026769;28;20488;-66
2024/01/02 05:28:01;;;;;;;8.90;5.33;;;;;;;;;;5027507;28;20045;-66
2024/01/02 05:30:27;;;;;;;8.07;4.80;;;;;;;;;;5027684;28;20049;-65
2024/01/02 05:32:53;;;;;;;11.43;5.47;;;;;;;;;;5018922;28;20045;-66
2024/01/02 05:35:19;;;;;;;8.70;5.40;;;;;;;;;;5027733;28;20045;-66
2024/01/02 05:37:45;;;;;;;9.37;6.13;;;;;;;;;;5026894;28;20042;-66
2024/01/02 05:40:11;;;;;;;10.40;6.57;;;;;;;;;;5027937;28;20052;-66
2024/01/02 05:42:37;;;;;;;10.27;6.80;;;;;;;;;;5030162;28;20048;-66
2024/01/02 05:45:03;;;;;;;12.67;6.70;;;;;;;;;;5030404;28;20049;-66
2024/01/02 05:47:29;;;;;;;14.47;7.70;;;;;;;;;;5031094;28;20071;-66
2024/01/02 05:49:55;;;;;;;12.87;5.63;;;;;;;;;;5030373;28;20037;-66
2024/01/02 05:52:21;;;;;;;12.33;7.03;;;;;;;;;;5029686;28;20471;-66
2024/01/02 05:54:47;;;;;;;14.00;8.40;;;;;;;;;;5030067;28;20069;-66
2024/01/02 05:57:13;;;;;;;15.00;7.67;;;;;;;;;;5030972;28;20037;-66
2024/01/02 05:59:39;;;;;;;12.27;7.13;;;;;;;;;;5030052;28;20045;-66
2024/01/02 06:02:05;;;;;;;12.57;7.80;;;;;;;;;;5030711;28;20044;-66
2024/01/02 06:04:31;;;;;;;11.63;7.10;;;;;;;;;;5030005;28;20034;-66
2024/01/02 06:06:57;;;;;;;12.50;7.37;;;;;;;;;;5030427;28;20129;-66
2024/01/02 06:09:24;;;;;;;10.40;7.40;;;;;;;;;;5030459;28;20041;-66
2024/01/02 06:11:50;;;;;;;12.00;7.70;;;;;;;;;;5029579;28;20046;-66
2024/01/02 06:14:16;;;;;;;9.43;5.90;;;;;;;;;;5030495;28;20049;-66
2024/01/02 06:16:42;;;;;;;9.27;5.87;;;;;;;;;;5030111;28;20076;-66
2024/01/02 06:19:08;;;;;;;16.50;8.40;;;;;;;;;;5030329;28;20045;-66
2024/01/02 06:21:34;;;;;;;9.50;6.57;;;;;;;;;;5030472;28;20069;-66
2024/01/02 06:24:00;;;;;;;7.93;5.43;;;;;;;;;;5028822;28;20459;-66
2024/01/02 06:26:26;;;;;;;4.67;3.40;;;;;;;;;;5028567;28;20133;-66
2024/01/02 06:28:52;;;;;;;3.47;2.77;;;;;;;;;;5029184;28;20076;-66
2024/01/02 06:31:24;;;;;;;5.90;4.27;;;;;;;;;;5030376;28;20053;-66
2024/01/02 06:33:51;;;;;;;7.53;4.80;;;;;;;;;;5029620;28;20124;-66
2024/01/02 06:36:17;;;;;;;5.83;4.67;;;;;;;;;;5029388;28;20458;-66
2024/01/02 06:38:43;;;;;;;8.13;5.50;;;;;;;;;;5029261;28;20111;-66
2024/01/02 06:41:09;;;;;;;7.57;5.33;;;;;;;;;;5030074;28;20088;-66
2024/01/02 06:43:35;;;;;;;7.47;5.10;;;;;;;;;;5029794;28;20460;-65
2024/01/02 06:46:02;;;;;;;7.07;4.80;;;;;;;;;;5030699;28;20147;-66
2024/01/02 06:48:28;;;;;;;8.93;5.30;;;;;;;;;;5024266;28;20136;-66
2024/01/02 06:50:55;;;;;;;7.90;4.97;;;;;;;;;;5029065;28;20045;-65
2024/01/02 06:53:21;;;;;;;9.77;5.27;;;;;;;;;;5029997;28;20049;-66
2024/01/02 06:55:47;;;;;;;6.77;4.20;;;;;;;;;;5029480;28;20046;-66
2024/01/02 06:58:13;;;;;;;9.70;4.63;;;;;;;;;;5029240;28;20060;-66
2024/01/02 07:00:39;;;;;;;9.37;5.37;;;;;;;;;;5028799;28;20044;-66
2024/01/02 07:03:05;;;;;;;6.87;4.10;;;;;;;;;;5029422;28;20471;-66
2024/01/02 07:05:31;;;;;;;8.60;4.13;;;;;;;;;;5030140;28;20056;-66
2024/01/02 07:07:57;;;;;;;7.00;3.70;;;;;;;;;;5028647;28;20599;-66
2024/01/02 07:10:25;;;;;;;8.83;4.00;;;;;;;;;;5030017;28;20040;-66
2024/01/02 07:12:51;;;;;;;8.03;4.40;;;;;;;;;;5029200;28;20053;-66
2024/01/02 07:15:17;;;;;;;9.33;4.07;;;;;;;;;;5028392;28;20052;-66
2024/01/02 07:17:44;;;;;;;8.70;3.70;;;;;;;;;;5028511;28;20068;-66
2024/01/02 07:20:11;;;;;;;7.03;3.60;;;;;;;;;;5028570;28;20047;-66
2024/01/02 07:22:37;;;;;;;7.60;3.47;;;;;;;;;;5029192;28;20076;-66
2024/01/02 07:25:03;;;;;;;8.23;3.83;;;;;;;;;;5029425;28;20053;-66
2024/01/02 07:27:29;;;;;;;8.50;4.40;;;;;;;;;;5029393;28;20103;-66
2024/01/02 07:29:55;;;;;;;5.90;3.47;;;;;;;;;;5030554;28;20038;-66
2024/01/02 07:32:21;;;;;;;9.23;4.07;;;;;;;;;;5029143;28;20123;-66
2024/01/02 07:34:47;;;;;;;8.87;4.10;;;;;;;;;;5028753;28;20231;-66
2024/01/02 07:37:14;;;;;;;10.47;4.27;;;;;;;;;;5028947;28;20133;-66
2024/01/02 07:39:40;;;;;;;11.13;4.77;;;;;;;;;;5028877;28;20478;-65
2024/01/02 07:42:08;;;;;;;9.60;4.90;;;;;;;;;;5028332;28;20081;-66
2024/01/02 07:44:34;;;;;;;9.43;4.63;;;;;;;;;;5026951;28;20049;-66
2024/01/02 07:47:01;;;;;;;12.03;5.40;;;;;;;;;;5026499;28;20057;-65
2024/01/02 07:49:27;;;;;;;14.30;5.73;;;;;;;;;;5027921;28;20038;-65
2024/01/02 07:51:54;;;;;;;11.20;5.30;;;;;;;;;;5028383;28;20054;-65
2024/01/02 07:54:20;;;;;;;9.27;5.53;;;;;;;;;;5026669;28;20458;-66
2024/01/02 07:56:46;;;;;;;14.17;5.80;;;;;;;;;;5029202;28;20054;-65
2024/01/02 07:59:15;;;;;;;15.27;6.77;;;;;;;;;;5029268;28;20042;-65
2024/01/02 08:01:41;;;;;;;15.13;5.80;;;;;;;;;;5043384;28;20045;-66
2024/01/02 08:04:07;;;;;;;16.10;6.23;;;;;;;;;;5027892;28;20474;-66
2024/01/02 08:06:33;;;;;;;19.83;7.17;;;;;;;;;;5029387;28;20041;-66
2024/01/02 08:09:00;;;;;;;14.50;6.60;;;;;;;;;;5025045;28;20398;-66
2024/01/02 08:11:27;;;;;;;15.60;6.00;;;;;;;;;;5027457;28;20539;-66
2024/01/02 08:13:53;;;;;;;18.10;6.90;;;;;;;;;;5026555;28;20087;-66
2024/01/02 08:16:20;;;;;;;15.80;5.33;;;;;;;;;;5026023;28;20072;-66
2024/01/02 08:18:46;;;;;;;16.43;5.33;;;;;;;;;;5028188;28;20041;-65
2024/01/02 08:21:12;;;;;;;22.50;7.50;;;;;;;;;;5028158;28;20049;-66
2024/01/02 08:23:38;;;;;;;17.87;5.37;;;;;;;;;;5028153;28;20053;-66
2024/01/02 08:26:06;;;;;;;22.47;9.10;;;;;;;;;;5026802;28;20061;-66
2024/01/02 08:28:32;;;;;;;19.43;5.77;;;;;;;;;;5028052;28;20041;-66
2024/01/02 08:30:58;;;;;;;23.07;5.20;;;;;;;;;;5027652;28;20037;-65
2024/01/02 08:33:24;;;;;;;18.73;4.47;;;;;;;;;;5027356;28;20073;-65
2024/01/02 08:35:51;;;;;;;24.83;5.33;;;;;;;;;;5027815;28;20508;-65
2024/01/02 08:38:17;;;;;;;20.57;4.23;;;;;;;;;;5026320;28;20049;-65
2024/01/02 08:40:43;;;;;;;24.40;4.33;;;;;;;;;;5027370;28;20526;-65
2024/01/02 08:43:09;;;;;;;18.77;4.17;;;;;;;;;;5027249;28;20099;-65
2024/01/02 08:45:35;;;;;;;24.03;4.90;;;;;;;;;;5027639;28;20061;-66
2024/01/02 08:48:01;;;;;;;24.30;3.63;;;;;;;;;;5026210;28;20388;-66
2024/01/02 08:50:29;;;;;;;21.73;3.90;;;;;;;;;;5027646;28;20103;-65
2024/01/02 08:52:55;;;;;;;22.33;4.20;;;;;;;;;;5026626;28;20558;-65
2024/01/02 08:55:21;;;;;;;23.93;3.60;;;;;;;;;;5030312;28;20113;-65
2024/01/02 08:57:47;;;;;;;21.10;4.07;;;;;;;;;;5025995;28;20463;-65
2024/01/02 09:00:15;;;;;;;26.17;3.97;;;;;;;;;;5027713;28;20137;-65
2024/01/02 09:02:42;;;;;;;31.43;4.40;;;;;;;;;;5027897;28;20590;-65
2024/01/02 09:05:08;;;;;;;28.83;4.33;;;;;;;;;;5027356;28;20515;-66
2024/01/02 09:07:36;;;;;;;35.53;5.10;;;;;;;;;;5019580;28;20037;-65
2024/01/02 09:10:02;;;;;;;18.60;3.87;;;;;;;;;;5027498;28;20056;-65
2024/01/02 09:12:28;;;;;;;24.40;3.63;;;;;;;;;;5031199;28;20055;-65
2024/01/02 09:14:54;;;;;;;26.30;4.37;;;;;;;;;;5029072;28;20821;-65
2024/01/02 09:17:20;;;;;;;26.03;4.97;;;;;;;;;;5031354;28;20140;-65
2024/01/02 09:19:46;;;;;;;28.33;3.63;;;;;;;;;;5031753;28;20080;-66
2024/01/02 09:22:12;;;;;;;22.20;3.93;;;;;;;;;;5031777;28;20073;-65
2024/01/02 09:24:39;;;;;;;19.00;4.00;;;;;;;;;;5031538;28;20468;-65
2024/01/02 09:27:08;;;;;;;20.70;3.30;;;;;;;;;;5031369;28;20041;-65
2024/01/02 09:29:34;;;;;;;27.37;4.00;;;;;;;;;;5029354;28;20053;-65
2024/01/02 09:32:00;;;;;;;20.67;4.63;;;;;;;;;;5031359;28;20487;-65
2024/01/02 09:34:26;;;;;;;16.40;3.20;;;;;;;;;;5031332;28;20077;-65
2024/01/02 09:36:52;;;;;;;20.67;3.20;;;;;;;;;;5046778;28;20091;-65
2024/01/02 09:39:18;;;;;;;20.03;3.40;;;;;;;;;;5029576;28;20053;-65
2024/01/02 09:41:58;;;;;;;20.20;3.80;;;;;;;;;;5031114;28;20045;-65
2024/01/02 09:44:43;;;;;;;20.47;3.63;;;;;;;;;;5030506;28;20085;-65
2024/01/02 09:47:17;;;;;;;24.87;3.73;;;;;;;;;;5030729;28;20049;-65
2024/01/02 09:49:50;;;;;;;19.73;3.10;;;;;;;;;;5030364;28;20048;-65
2024/01/02 09:52:17;;;;;;;;;;;;;;;;;;5030550;28;20041;-65
2024/01/02 09:55:07;;;;;;;28.93;4.20;;;;;;;;;;5030318;28;19921;-65
2024/01/02 09:57:40;;;;;;;17.97;3.40;;;;;;;;;;5030733;28;20138;-65
2024/01/02 10:00:11;;;;;;;24.65;3.80;;;;;;;;;;5027587;28;20292;-65
2024/01/02 10:02:55;;;;;;;19.97;3.97;;;;;;;;;;5029601;28;20041;-65
2024/01/02 10:05:42;;;;;;;20.52;4.32;;;;;;;;;;5030868;28;20107;-65
2024/01/02 10:08:25;;;;;;;18.90;3.57;;;;;;;;;;5024225;28;20053;-65
2024/01/02 10:11:00;;;;;;;23.40;3.72;;;;;;;;;;5029544;28;20503;-65
2024/01/02 10:13:35;;;;;;;16.97;3.83;;;;;;;;;;5030265;28;20175;-65
2024/01/02 10:16:01;;;;;;;18.63;4.20;;;;;;;;;;5030209;28;20056;-65
2024/01/02 10:18:27;;;;;;;26.00;4.90;;;;;;;;;;5030349;28;20132;-65
2024/01/02 10:21:12;;;;;;;24.17;4.23;;;;;;;;;;5029733;28;20488;-65
2024/01/02 10:23:57;;;;;;;22.20;4.03;;;;;;;;;;5030003;28;20476;-65
2024/01/02 10:26:25;;;;;;;20.37;3.43;;;;;;;;;;5029791;28;20057;-65
2024/01/02 10:28:52;;;;;;;25.83;4.77;;;;;;;;;;5029248;28;20538;-65
2024/01/02 10:31:18;;;;;;;28.83;4.67;;;;;;;;;;5030131;28;20084;-66
2024/01/02 10:33:48;;;;;;;27.30;4.90;;;;;;;;;;5029764;28;20423;-65
2024/01/02 10:36:22;;;;;;;32.40;4.50;;;;;;;;;;5029845;28;20479;-65
2024/01/02 10:39:04;;;;;;;32.03;5.43;;;;;;;;;;5029550;28;20514;-65
2024/01/02 10:41:54;;;;;;;34.37;5.27;;;;;;;;;;5023595;28;20080;-65
2024/01/02 10:44:32;;;;;;;26.83;4.67;;;;;;;;;;5021314;28;20492;-65
2024/01/02 10:47:07;;;;;;;36.53;6.17;;;;;;;;;;5029496;28;20057;-65
2024/01/02 10:49:49;;;;;;;46.17;6.80;;;;;;;;;;5022507;28;20049;-65
2024/01/02 10:52:24;;;;;;;35.63;6.00;;;;;;;;;;5028792;28;20049;-65
2024/01/02 10:54:55;;;;;;;35.87;6.50;;;;;;;;;;5029167;28;20072;-65
2024/01/02 10:57:30;;;;;;;40.37;6.17;;;;;;;;;;5027800;28;20042;-65
2024/01/02 11:00:00;;;;;;;44.87;6.80;;;;;;;;;;5029882;28;20041;-65
2024/01/02 11:02:35;;;;;;;34.90;6.00;;;;;;;;;;5029175;28;20045;-65
2024/01/02 11:05:04;;;;;;;34.87;5.67;;;;;;;;;;5028630;28;20054;-65
2024/01/02 11:07:35;;;;;;;50.17;7.10;;;;;;;;;;5030434;28;20072;-65
2024/01/02 11:10:01;;;;;;;33.17;6.17;;;;;;;;;;5029773;28;20053;-65
2024/01/02 11:12:31;;;;;;;47.60;6.90;;;;;;;;;;5028778;28;20048;-65
2024/01/02 11:14:57;;;;;;;29.20;6.30;;;;;;;;;;5029185;28;20052;-65
2024/01/02 11:17:23;;;;;;;46.40;7.50;;;;;;;;;;5029129;28;20404;-64
2024/01/02 11:19:57;;;;;;;41.83;7.70;;;;;;;;;;5027045;28;20055;-65
2024/01/02 11:22:27;;;;;;;36.70;6.47;;;;;;;;;;5028763;28;20051;-65
2024/01/02 11:24:55;;;;;;;40.27;7.97;;;;;;;;;;5028621;28;20492;-64
2024/01/02 11:27:23;;;;;;;34.57;6.43;;;;;;;;;;5028693;28;20053;-65
2024/01/02 11:29:51;;;;;;;36.33;5.57;;;;;;;;;;5027461;28;20423;-65
2024/01/02 11:32:19;;;;;;;38.43;6.23;;;;;;;;;;5027350;28;20385;-65
2024/01/02 11:35:01;;;;;;;37.57;7.33;;;;;;;;;;5029091;28;20049;-65
2024/01/02 11:37:37;;;;;;;31.00;5.50;;;;;;;;;;5027291;28;20060;-65
2024/01/02 11:40:09;;;;;;;45.10;7.87;;;;;;;;;;5022961;28;20507;-65
2024/01/02 11:42:39;;;;;;;37.67;7.50;;;;;;;;;;5028761;28;20046;-65
2024/01/02 11:45:09;;;;;;;45.17;7.20;;;;;;;;;;5028441;28;20053;-64
2024/01/02 11:47:43;;;;;;;41.53;7.73;;;;;;;;;;5027561;28;20435;-64
2024/01/02 11:50:10;;;;;;;30.77;7.53;;;;;;;;;;5026660;28;20057;-65
2024/01/02 11:52:57;;;;;;;55.33;8.63;;;;;;;;;;5027780;28;20057;-65
2024/01/02 11:55:50;;;;;;;38.00;7.70;;;;;;;;;;5027365;28;20037;-65
2024/01/02 11:58:26;;;;;;;49.27;9.13;;;;;;;;;;5020517;28;20053;-65
2024/01/02 12:01:10;;;;;;;38.97;9.97;;;;;;;;;;5026290;28;20167;-65
2024/01/02 12:03:48;;;;;;;47.17;9.33;;;;;;;;;;5028591;28;20061;-65
2024/01/02 12:06:24;;;;;;;44.77;8.33;;;;;;;;;;5025284;28;20107;-65
2024/01/02 12:08:53;;;;;;;52.97;8.63;;;;;;;;;;5027840;28;20064;-65
2024/01/02 12:11:20;;;;;;;33.60;7.20;;;;;;;;;;5023551;28;20517;-64
2024/01/02 12:13:58;;;;;;;45.17;8.20;;;;;;;;;;5027563;28;20132;-65
2024/01/02 12:16:26;;;;;;;50.30;8.97;;;;;;;;;;5020485;28;20186;-64
2024/01/02 12:18:52;;;;;;;36.93;7.57;;;;;;;;;;5028604;28;20056;-64
2024/01/02 12:21:22;;;;;;;50.90;8.07;;;;;;;;;;5028326;28;20037;-65
2024/01/02 12:23:49;;;;;;;34.37;8.00;;;;;;;;;;5027660;28;20041;-64
2024/01/02 12:26:16;;;;;;;42.03;7.87;;;;;;;;;;5026864;28;20056;-64
2024/01/02 12:28:43;;;;;;;49.40;9.53;;;;;;;;;;5027798;28;20037;-65
2024/01/02 12:31:24;;;;;;;36.50;7.80;;;;;;;;;;5027208;28;20481;-65
2024/01/02 12:34:23;;;;;;;56.90;10.37;;;;;;;;;;5020892;28;20128;-64
2024/01/02 12:37:08;;;;;;;50.93;7.87;;;;;;;;;;5007989;28;20092;-65
2024/01/02 12:39:38;;;;;;;47.10;9.53;;;;;;;;;;5026511;28;20452;-64
2024/01/02 12:42:08;;;;;;;51.57;11.23;;;;;;;;;;5027663;28;20161;-65
2024/01/02 12:44:37;;;;;;;46.83;8.57;;;;;;;;;;5027247;28;20297;-64
2024/01/02 12:47:05;;;;;;;44.97;7.97;;;;;;;;;;5027884;28;20053;-64
2024/01/02 12:49:35;;;;;;;38.73;8.93;;;;;;;;;;5026858;28;20418;-64
2024/01/02 12:52:02;;;;;;;43.70;8.23;;;;;;;;;;5027604;28;20380;-64
2024/01/02 12:54:29;;;;;;;47.50;8.07;;;;;;;;;;5027955;28;20072;-65
2024/01/02 12:57:02;;;;;;;44.57;9.03;;;;;;;;;;5027024;28;20037;-64
2024/01/02 12:59:29;;;;;;;46.50;9.50;;;;;;;;;;5027620;28;20184;-64
2024/01/02 13:01:56;;;;;;;47.83;10.33;;;;;;;;;;5027620;28;20080;-64
2024/01/02 13:04:22;;;;;;;46.77;10.23;;;;;;;;;;5025287;28;20150;-65
2024/01/02 13:06:48;;;;;;;51.23;10.33;;;;;;;;;;5026021;28;20107;-64
2024/01/02 13:09:20;;;;;;;47.27;10.23;;;;;;;;;;5025910;28;20577;-65
2024/01/02 13:11:47;;;;;;;53.47;10.33;;;;;;;;;;5022202;28;20188;-65
2024/01/02 13:14:14;;;;;;;61.50;11.67;;;;;;;;;;5025761;28;20041;-65
2024/01/02 13:16:41;;;;;;;60.67;11.27;;;;;;;;;;5025057;28;20385;-65
2024/01/02 13:19:14;;;;;;;51.80;11.03;;;;;;;;;;5025778;28;20583;-66
2024/01/02 13:21:40;;;;;;;63.17;12.83;;;;;;;;;;5020795;28;20056;-66
2024/01/02 13:24:10;;;;;;;64.30;13.50;;;;;;;;;;5024959;28;20613;-66
2024/01/02 13:26:48;;;;;;;56.00;14.53;;;;;;;;;;5026009;28;20491;-66
2024/01/02 13:29:14;;;;;;;66.07;14.07;;;;;;;;;;5025929;28;20052;-66
2024/01/02 13:31:57;;;;;;;54.73;13.33;;;;;;;;;;5024750;28;20514;-66
2024/01/02 13:34:23;;;;;;;64.55;15.95;;;;;;;;;;5025500;28;20060;-67
2024/01/02 13:36:49;;;;;;;64.73;16.37;;;;;;;;;;5025490;28;20507;-67
2024/01/02 13:39:34;;;;;;;69.63;15.37;;;;;;;;;;5023767;28;20586;-67
2024/01/02 13:42:04;;;;;;;56.47;14.23;;;;;;;;;;5024456;28;20057;-67
2024/01/02 13:44:34;;;;;;;42.53;13.93;;;;;;;;;;5027877;28;20088;-66
2024/01/02 13:47:00;;;;;;;38.70;12.50;;;;;;;;;;5025195;28;20440;-66
2024/01/02 13:49:47;;;;;;;29.40;12.07;;;;;;;;;;5025170;28;20049;-66
2024/01/02 13:52:14;;;;;;;36.07;11.87;;;;;;;;;;5027073;28;20571;-66
2024/01/02 13:54:43;;;;;;;32.47;12.00;;;;;;;;;;5026857;28;20045;-66
2024/01/02 13:57:09;;;;;;;27.17;11.93;;;;;;;;;;5026981;28;20053;-66
2024/01/02 13:59:35;;;;;;;31.13;11.87;;;;;;;;;;5026944;28;20052;-66
2024/01/02 14:02:11;;;;;;;28.83;12.80;;;;;;;;;;5029679;28;20085;-66
2024/01/02 14:04:37;;;;;;;30.97;11.87;;;;;;;;;;5029913;28;20045;-66
2024/01/02 14:07:04;;;;;;;25.70;11.63;;;;;;;;;;5029599;28;20462;-65
2024/01/02 14:09:30;;;;;;;33.17;12.23;;;;;;;;;;5030945;28;20400;-66
2024/01/02 14:12:00;;;;;;;24.73;11.10;;;;;;;;;;5030628;28;20041;-65
2024/01/02 14:14:38;;;;;;;24.33;10.73;;;;;;;;;;5030354;28;20128;-66
2024/01/02 14:17:04;;;;;;;23.03;10.37;;;;;;;;;;5030168;28;20647;-66
2024/01/02 14:19:32;;;;;;;22.53;9.43;;;;;;;;;;5033334;28;20560;-66
2024/01/02 14:22:07;;;;;;;22.47;9.67;;;;;;;;;;5030289;28;20045;-66
2024/01/02 14:24:41;;;;;;;19.90;8.93;;;;;;;;;;5030122;28;20057;-66
2024/01/02 14:27:10;;;;;;;23.87;11.97;;;;;;;;;;5029565;28;20136;-65
2024/01/02 14:29:41;;;;;;;15.20;8.97;;;;;;;;;;5030476;28;20049;-66
2024/01/02 14:32:21;;;;;;;16.30;8.27;;;;;;;;;;5029961;28;20045;-66
2024/01/02 14:35:00;;;;;;;10.73;6.93;;;;;;;;;;5030718;28;20054;-66
2024/01/02 14:37:36;;;;;;;15.03;7.90;;;;;;;;;;5033937;28;20056;-66